Time;durP1;ratioP1;P1;durP2;ratioP2;P2;SDS_P1;SDS_P2;PMS_P1;PMS_P2;Temp;Humidity;BMP_temperature;BMP_pressure;BME280_temperature;BME280_humidity;BME280_pressure;Samples;Min_cycle;Max_cycle;Signal;HPM_P1;HPM_P2
2022/08/13 00:02:51;;;;;;;14.43;8.73;;;;;;;19.73;93.32;99771.72;6298051;28;20409;-73
2022/08/13 00:05:52;;;;;;;11.55;8.75;;;;;;;19.72;93.48;99764.75;6296805;28;20079;-73
2022/08/13 00:08:56;;;;;;;15.52;9.05;;;;;;;19.68;93.90;99762.56;6298053;28;20044;-74
2022/08/13 00:15:43;;;;;;;11.35;8.18;;;;;;;19.55;95.55;99756.91;6296503;28;20428;-74
2022/08/13 00:18:44;;;;;;;12.52;9.15;;;;;;;19.46;97.35;99753.38;6296448;28;20049;-73
2022/08/13 00:21:47;;;;;;;14.02;8.60;;;;;;;19.38;98.14;99754.16;6280007;28;20518;-73
2022/08/13 00:24:48;;;;;;;13.63;8.93;;;;;;;19.38;98.40;99756.00;6296154;28;20056;-73
2022/08/13 00:27:56;;;;;;;11.63;8.77;;;;;;;19.45;96.97;99749.06;6313053;28;20040;-73
2022/08/13 00:30:59;;;;;;;14.55;9.25;;;;;;;19.35;98.54;99743.88;6296465;28;20481;-74
2022/08/13 00:34:00;;;;;;;11.63;9.05;;;;;;;19.26;100.00;99743.03;6295226;28;20044;-73
2022/08/13 00:37:01;;;;;;;11.27;8.55;;;;;;;19.25;100.00;99741.38;6297031;28;20404;-73
2022/08/13 00:40:03;;;;;;;14.18;9.30;;;;;;;19.20;100.00;99741.00;6312707;28;20045;-73
2022/08/13 00:43:06;;;;;;;12.65;9.15;;;;;;;19.16;100.00;99737.00;6295667;28;20485;-73
2022/08/13 00:46:08;;;;;;;11.50;8.90;;;;;;;19.12;100.00;99731.19;6297012;28;20033;-73
2022/08/13 00:49:12;;;;;;;12.23;9.97;;;;;;;19.11;100.00;99736.69;6312489;28;20041;-73
2022/08/13 00:52:13;;;;;;;11.15;8.70;;;;;;;19.14;100.00;99736.34;6296780;28;20040;-73
2022/08/13 00:55:17;;;;;;;13.63;9.50;;;;;;;18.91;100.00;99722.81;6296837;28;20053;-73
2022/08/13 00:58:20;;;;;;;11.32;8.95;;;;;;;18.91;100.00;99728.94;6295390;28;20544;-73
2022/08/13 01:01:25;;;;;;;11.82;9.35;;;;;;;18.71;100.00;99733.53;6295768;28;20051;-73
2022/08/13 01:04:28;;;;;;;12.70;9.80;;;;;;;18.72;100.00;99735.22;6296604;28;20486;-73
2022/08/13 01:07:30;;;;;;;13.00;9.85;;;;;;;18.61;100.00;99731.97;6312308;28;20075;-71
2022/08/13 01:10:33;;;;;;;11.20;9.15;;;;;;;18.67;100.00;99731.38;6296582;28;20040;-71
2022/08/13 01:13:35;;;;;;;14.57;9.55;;;;;;;18.70;100.00;99737.19;6295363;28;20044;-71
2022/08/13 01:16:37;;;;;;;14.60;9.32;;;;;;;18.61;100.00;99732.81;6310411;28;20075;-71
2022/08/13 01:19:39;;;;;;;12.88;9.35;;;;;;;18.58;100.00;99712.00;6321602;28;20055;-71
2022/08/13 01:22:41;;;;;;;11.95;9.05;;;;;;;18.57;100.00;99720.06;6320101;28;20056;-72
2022/08/13 01:25:44;;;;;;;;;;;;;;;18.46;100.00;99724.59;6320976;28;20044;-72
2022/08/13 01:28:47;;;;;;;17.90;9.45;;;;;;;18.26;100.00;99729.25;6321600;28;20303;-72
2022/08/13 01:31:48;;;;;;;12.82;10.00;;;;;;;18.42;100.00;99719.78;6321344;28;20044;-72
2022/08/13 01:34:50;;;;;;;13.25;9.50;;;;;;;18.40;100.00;99717.28;6303407;28;20051;-72
2022/08/13 01:37:53;;;;;;;12.27;9.40;;;;;;;18.30;100.00;99725.31;6321223;28;20412;-72
2022/08/13 01:40:55;;;;;;;12.35;9.70;;;;;;;18.34;100.00;99720.53;6321198;28;20488;-72
2022/08/13 01:44:04;;;;;;;15.38;10.65;;;;;;;18.37;100.00;99716.78;6319442;28;20121;-72
2022/08/13 01:50:31;;;;;;;17.10;10.40;;;;;;;18.40;100.00;99716.47;6321175;28;20097;-72
2022/08/13 01:53:33;;;;;;;11.15;9.32;;;;;;;18.36;100.00;99709.81;6321103;28;20105;-72
2022/08/13 01:56:34;;;;;;;12.90;10.07;;;;;;;18.30;100.00;99716.53;6303300;28;20042;-72
2022/08/13 01:59:37;;;;;;;12.50;9.70;;;;;;;18.34;100.00;99707.34;6321178;28;20044;-72
2022/08/13 02:02:39;;;;;;;14.30;10.23;;;;;;;18.28;100.00;99700.00;6302880;28;20058;-73
2022/08/13 02:05:40;;;;;;;12.50;10.03;;;;;;;18.34;100.00;99704.69;6319853;28;20044;-73
2022/08/13 02:08:41;;;;;;;;;;;;;;;18.36;100.00;99696.63;6321448;28;20127;-73
2022/08/13 02:11:43;;;;;;;11.40;9.05;;;;;;;18.38;100.00;99700.75;6320820;28;19924;-72
2022/08/13 02:14:44;;;;;;;13.13;9.48;;;;;;;18.32;100.00;99701.38;6320167;28;20117;-72
2022/08/13 02:17:45;;;;;;;14.30;9.80;;;;;;;18.25;100.00;99698.50;6319176;28;20128;-73
2022/08/13 02:20:52;;;;;;;13.07;9.00;;;;;;;18.23;100.00;99687.28;6319720;28;20040;-73
2022/08/13 02:23:56;;;;;;;15.32;9.50;;;;;;;18.10;100.00;99681.56;6319480;28;20463;-73
2022/08/13 02:26:59;;;;;;;12.70;9.60;;;;;;;18.12;100.00;99680.41;6315543;28;20162;-73
2022/08/13 02:29:59;;;;;;;14.00;9.82;;;;;;;18.07;100.00;99673.94;6294330;28;20052;-74
2022/08/13 02:33:00;;;;;;;12.35;9.95;;;;;;;18.03;100.00;99680.50;6300044;28;20419;-73
2022/08/13 02:36:10;;;;;;;12.25;9.93;;;;;;;18.10;100.00;99677.09;6284115;28;20071;-73
2022/08/13 02:39:11;;;;;;;11.55;9.23;;;;;;;18.13;100.00;99676.78;6319668;28;20481;-73
2022/08/13 02:42:12;;;;;;;13.32;9.93;;;;;;;18.24;100.00;99674.91;6293064;28;20041;-73
2022/08/13 02:45:15;;;;;;;12.23;10.10;;;;;;;18.21;100.00;99664.66;6293184;28;20037;-73
2022/08/13 02:48:17;;;;;;;12.95;9.32;;;;;;;18.24;100.00;99665.19;6305969;28;20067;-73
2022/08/13 02:51:23;;;;;;;14.13;9.30;;;;;;;18.20;100.00;99663.81;6300960;28;20144;-72
2022/08/13 02:54:25;;;;;;;14.15;9.95;;;;;;;18.21;100.00;99664.66;6302807;28;20048;-73
2022/08/13 02:57:27;;;;;;;12.23;9.40;;;;;;;18.20;100.00;99669.09;6305712;28;20028;-73
2022/08/13 03:00:30;;;;;;;13.77;9.52;;;;;;;18.16;100.00;99667.75;6322501;28;20051;-73
2022/08/13 03:03:31;;;;;;;;;;;;;;;18.16;100.00;99669.53;6322954;28;20115;-73
2022/08/13 03:06:32;;;;;;;12.65;9.25;;;;;;;18.18;100.00;99667.59;6323812;28;20280;-73
2022/08/13 03:09:33;;;;;;;12.18;9.85;;;;;;;18.12;100.00;99666.41;6322374;28;20097;-71
2022/08/13 03:12:37;;;;;;;14.30;9.05;;;;;;;18.10;100.00;99669.19;6323515;28;20040;-71
2022/08/13 03:15:38;;;;;;;12.70;9.32;;;;;;;18.05;100.00;99663.50;6305643;28;20047;-72
2022/08/13 03:18:39;;;;;;;14.07;10.32;;;;;;;18.04;100.00;99674.25;6322183;28;20044;-71
2022/08/13 03:21:43;;;;;;;12.88;9.27;;;;;;;18.00;100.00;99675.53;6305416;28;20044;-72
2022/08/13 03:24:47;;;;;;;11.30;9.18;;;;;;;17.94;100.00;99674.31;6323089;28;20047;-71
2022/08/13 03:27:48;;;;;;;14.77;10.35;;;;;;;17.95;100.00;99675.13;6272310;28;20536;-71
2022/08/13 03:30:53;;;;;;;15.40;9.50;;;;;;;17.94;100.00;99676.94;6323089;28;20051;-72
2022/08/13 03:33:58;;;;;;;15.15;10.07;;;;;;;17.87;100.00;99675.88;6305327;28;20420;-71
2022/08/13 03:36:59;;;;;;;14.23;9.85;;;;;;;17.91;100.00;99677.22;6321905;28;20054;-72
2022/08/13 03:40:02;;;;;;;16.30;9.48;;;;;;;17.85;100.00;99673.41;6304755;28;20069;-71
2022/08/13 03:43:09;;;;;;;12.00;9.15;;;;;;;17.93;100.00;99675.28;6321441;28;20048;-71
2022/08/13 03:46:15;;;;;;;13.18;9.80;;;;;;;17.89;100.00;99671.28;6304599;28;20040;-71
2022/08/13 03:49:18;;;;;;;11.32;9.65;;;;;;;17.90;100.00;99670.31;6322456;28;20094;-72
2022/08/13 03:52:20;;;;;;;16.17;9.93;;;;;;;17.89;100.00;99666.00;6322852;28;20075;-71
2022/08/13 03:55:21;;;;;;;13.13;9.35;;;;;;;17.95;100.00;99667.22;6322314;28;20072;-71
2022/08/13 03:58:24;;;;;;;12.18;9.88;;;;;;;18.00;100.00;99660.50;6321117;28;20499;-73
2022/08/13 04:01:25;;;;;;;13.05;9.63;;;;;;;17.98;100.00;99664.28;6304495;28;20415;-72
2022/08/13 04:04:26;;;;;;;12.85;9.70;;;;;;;17.94;100.00;99663.75;6320986;28;20041;-72
2022/08/13 04:07:28;;;;;;;12.05;9.13;;;;;;;18.00;100.00;99660.50;6320660;28;20040;-71
2022/08/13 04:10:29;;;;;;;15.23;9.90;;;;;;;18.04;100.00;99661.88;6287183;28;20048;-71
2022/08/13 04:13:36;;;;;;;15.82;9.15;;;;;;;18.07;100.00;99663.38;6287661;28;20063;-71
2022/08/13 04:16:39;;;;;;;12.88;9.40;;;;;;;18.11;100.00;99667.38;6304862;28;20036;-71
2022/08/13 04:19:41;;;;;;;14.77;9.05;;;;;;;18.15;100.00;99658.16;6321517;28;20127;-71
2022/08/13 04:22:42;;;;;;;11.98;9.38;;;;;;;18.21;100.00;99667.28;6283331;28;20075;-72
2022/08/13 04:25:44;;;;;;;13.27;9.70;;;;;;;18.24;100.00;99657.25;6295502;28;20485;-72
2022/08/13 04:28:48;;;;;;;10.77;9.02;;;;;;;18.18;100.00;99651.75;6319657;28;20127;-71
2022/08/13 04:31:50;;;;;;;12.60;9.75;;;;;;;18.30;100.00;99656.66;6320662;28;20040;-72
2022/08/13 04:34:51;;;;;;;12.60;9.75;;;;;;;18.35;100.00;99658.81;6287372;28;20036;-72
2022/08/13 04:37:53;;;;;;;13.10;9.60;;;;;;;18.39;100.00;99656.69;6320246;28;20076;-71
2022/08/13 04:40:56;;;;;;;11.80;9.45;;;;;;;18.41;100.00;99660.00;6287123;28;20119;-72
2022/08/13 04:43:57;;;;;;;11.30;9.05;;;;;;;18.44;100.00;99657.88;6287048;28;20465;-71
2022/08/13 04:46:57;;;;;;;11.60;9.10;;;;;;;18.38;100.00;99657.69;6320005;28;20048;-72
2022/08/13 04:49:58;;;;;;;11.43;9.48;;;;;;;18.55;100.00;99651.53;6303618;28;20539;-72
2022/08/13 04:53:09;;;;;;;13.82;10.55;;;;;;;18.57;100.00;99651.38;6302149;28;20151;-71
2022/08/13 04:56:10;;;;;;;11.38;8.60;;;;;;;18.70;100.00;99643.88;6320850;28;20659;-71
2022/08/13 04:59:14;;;;;;;11.17;8.77;;;;;;;18.70;100.00;99649.97;6285137;28;20040;-73
2022/08/13 05:02:17;;;;;;;11.40;9.23;;;;;;;18.74;100.00;99637.28;6319285;28;20515;-73
2022/08/13 05:05:22;;;;;;;11.82;8.82;;;;;;;18.88;100.00;99642.03;6302169;28;20040;-73
2022/08/13 05:08:23;;;;;;;11.20;9.50;;;;;;;19.01;100.00;99651.34;6320685;28;20062;-73
2022/08/13 05:11:25;;;;;;;12.93;9.10;;;;;;;19.07;100.00;99648.91;6302792;28;20090;-73
2022/08/13 05:14:25;;;;;;;12.00;9.50;;;;;;;19.13;100.00;99642.16;6286302;28;20128;-72
2022/08/13 05:17:28;;;;;;;15.75;9.18;;;;;;;19.23;100.00;99650.78;6319547;28;20036;-73
2022/08/13 05:20:29;;;;;;;11.75;9.07;;;;;;;19.31;100.00;99645.53;6287092;28;20400;-73
2022/08/13 05:23:32;;;;;;;14.37;9.20;;;;;;;19.42;100.00;99646.22;6318821;28;20040;-72
2022/08/13 05:26:33;;;;;;;11.93;9.55;;;;;;;19.48;100.00;99643.75;6320529;28;20040;-73
2022/08/13 05:29:34;;;;;;;13.90;8.97;;;;;;;19.55;100.00;99643.94;6303001;28;20105;-73
2022/08/13 05:32:38;;;;;;;13.43;9.63;;;;;;;19.60;100.00;99640.78;6287016;28;20143;-72
2022/08/13 05:35:46;;;;;;;12.00;9.48;;;;;;;19.69;100.00;99632.72;6320296;28;20097;-73
2022/08/13 05:38:48;;;;;;;10.77;9.20;;;;;;;19.76;100.00;99634.75;6320615;28;20063;-73
2022/08/13 05:41:51;;;;;;;11.98;9.18;;;;;;;19.85;100.00;99641.69;6319222;28;20036;-73
2022/08/13 05:44:54;;;;;;;12.13;9.68;;;;;;;19.89;100.00;99633.28;6320304;28;20043;-73
2022/08/13 05:47:55;;;;;;;13.00;10.10;;;;;;;20.10;100.00;99640.75;6319855;28;20480;-71
2022/08/13 05:51:00;;;;;;;13.63;9.53;;;;;;;20.16;100.00;99628.66;6319232;28;20047;-72
2022/08/13 05:54:01;;;;;;;12.02;8.90;;;;;;;20.35;100.00;99631.97;6320317;28;20469;-72
2022/08/13 05:57:03;;;;;;;12.60;9.40;;;;;;;20.36;100.00;99629.13;6318755;28;20217;-73
2022/08/13 06:03:28;;;;;;;12.68;8.73;;;;;;;20.68;99.55;99627.47;6319762;28;20076;-73
2022/08/13 06:06:29;;;;;;;19.30;9.13;;;;;;;20.87;97.48;99634.19;6302947;28;20077;-72
2022/08/13 06:09:30;;;;;;;12.85;9.60;;;;;;;21.00;97.35;99626.56;6320911;28;20051;-72
2022/08/13 06:12:30;;;;;;;10.77;8.73;;;;;;;21.16;94.13;99632.78;6318831;28;20032;-73
2022/08/13 06:15:33;;;;;;;11.83;9.17;;;;;;;21.26;90.70;99639.53;6318709;28;20484;-73
2022/08/13 06:18:36;;;;;;;15.35;9.68;;;;;;;21.40;89.67;99640.63;6285080;28;20055;-73
2022/08/13 06:21:40;;;;;;;12.65;9.90;;;;;;;21.52;89.21;99641.09;6319875;28;20174;-72
2022/08/13 06:24:42;;;;;;;12.50;9.48;;;;;;;21.73;88.70;99632.50;6319935;28;20506;-73
2022/08/13 06:27:43;;;;;;;15.85;9.35;;;;;;;21.92;89.69;99629.38;6318576;28;20079;-73
2022/08/13 06:30:45;;;;;;;12.45;9.52;;;;;;;22.05;85.81;99636.75;6290205;28;20060;-73
2022/08/13 06:33:46;;;;;;;12.77;9.52;;;;;;;22.24;85.23;99638.13;6324547;28;20044;-73
2022/08/13 06:36:48;;;;;;;13.27;9.57;;;;;;;22.49;81.95;99637.91;6306093;28;20346;-73
2022/08/13 06:39:50;;;;;;;13.07;9.18;;;;;;;22.60;82.94;99642.75;6324404;28;20518;-73
2022/08/13 06:42:51;;;;;;;14.73;9.48;;;;;;;22.78;81.53;99637.09;6324399;28;20548;-73
2022/08/13 06:45:54;;;;;;;14.00;9.15;;;;;;;22.87;79.24;99632.50;6306173;28;20051;-73
2022/08/13 06:48:57;;;;;;;14.00;9.15;;;;;;;22.90;78.13;99625.00;6323563;28;20048;-73
2022/08/13 06:51:59;;;;;;;13.20;8.95;;;;;;;23.03;76.49;99628.88;6322374;28;20036;-73
2022/08/13 06:55:02;;;;;;;12.30;9.52;;;;;;;23.27;76.58;99633.06;6324034;28;20456;-73
2022/08/13 06:58:07;;;;;;;13.73;9.50;;;;;;;23.47;75.42;99631.47;6322404;28;20068;-73
2022/08/13 07:01:09;;;;;;;11.30;9.38;;;;;;;23.65;74.73;99624.88;6322386;28;20543;-73
2022/08/13 07:04:12;;;;;;;13.18;9.63;;;;;;;23.92;72.66;99629.47;6323934;28;20036;-73
2022/08/13 07:07:16;;;;;;;14.15;9.65;;;;;;;24.01;73.07;99624.03;6323604;28;20040;-73
2022/08/13 07:10:21;;;;;;;13.95;9.57;;;;;;;24.24;73.55;99621.16;6322731;28;20055;-73
2022/08/13 07:13:22;;;;;;;13.52;9.27;;;;;;;24.22;70.78;99633.88;6322492;28;20048;-73
2022/08/13 07:16:30;;;;;;;14.77;9.73;;;;;;;24.21;67.68;99627.69;6322331;28;20067;-73
2022/08/13 07:19:31;;;;;;;12.10;9.65;;;;;;;24.38;69.15;99622.91;6323349;28;20036;-72
2022/08/13 07:22:33;;;;;;;14.70;9.50;;;;;;;24.50;67.01;99633.88;6322319;28;20101;-73
2022/08/13 07:25:35;;;;;;;14.73;9.18;;;;;;;24.64;66.65;99642.81;6323301;28;20073;-73
2022/08/13 07:28:36;;;;;;;12.88;9.20;;;;;;;24.81;67.70;99637.97;6322262;28;20438;-73
2022/08/13 07:31:40;;;;;;;12.75;9.07;;;;;;;24.96;69.26;99637.84;6322198;28;20043;-73
2022/08/13 07:34:42;;;;;;;12.70;9.68;;;;;;;25.22;67.14;99638.00;6323110;28;20050;-73
2022/08/13 07:37:43;;;;;;;10.20;8.52;;;;;;;25.49;64.36;99646.13;6321956;28;20093;-73
2022/08/13 07:40:53;;;;;;;11.43;8.95;;;;;;;25.37;62.26;99643.22;6323342;28;20047;-73
2022/08/13 07:43:54;;;;;;;12.98;9.77;;;;;;;25.40;63.41;99639.31;6324103;28;20033;-73
2022/08/13 07:46:57;;;;;;;11.90;9.23;;;;;;;25.62;67.78;99638.16;6305509;28;20432;-73
2022/08/13 07:50:01;;;;;;;15.05;9.43;;;;;;;25.77;60.45;99631.81;6321628;28;20051;-73
2022/08/13 07:53:02;;;;;;;11.07;8.95;;;;;;;25.95;59.31;99629.41;6321615;28;20032;-73
2022/08/13 07:56:06;;;;;;;14.43;9.05;;;;;;;26.12;58.17;99622.63;6304578;28;20048;-73
2022/08/13 07:59:10;;;;;;;14.27;9.38;;;;;;;26.21;60.47;99619.75;6322846;28;20123;-73
2022/08/13 08:02:13;;;;;;;12.18;9.27;;;;;;;26.44;58.41;99622.81;6321245;28;20535;-73
2022/08/13 08:05:14;;;;;;;12.88;9.05;;;;;;;26.29;59.23;99617.66;6321143;28;20040;-73
2022/08/13 08:08:15;;;;;;;12.60;9.20;;;;;;;26.33;60.04;99615.41;6322417;28;20036;-73
2022/08/13 08:14:39;;;;;;;14.85;8.57;;;;;;;26.04;58.80;99604.09;6321230;28;20050;-73
2022/08/13 08:17:40;;;;;;;10.30;8.38;;;;;;;26.41;60.12;99601.00;6320806;28;20039;-73
2022/08/13 08:20:44;;;;;;;12.27;8.95;;;;;;;26.55;58.91;99597.28;6320758;28;20051;-74
2022/08/13 08:23:45;;;;;;;12.82;8.70;;;;;;;26.81;55.00;99598.25;6320666;28;20040;-73
2022/08/13 08:26:48;;;;;;;14.02;9.15;;;;;;;26.74;58.19;99599.09;6320484;28;20048;-73
2022/08/13 08:29:52;;;;;;;12.10;8.77;;;;;;;27.22;54.96;99591.72;6320473;28;20089;-73
2022/08/13 08:32:53;;;;;;;12.32;8.70;;;;;;;27.31;54.71;99593.97;6321895;28;20403;-73
2022/08/13 08:35:56;;;;;;;12.10;8.90;;;;;;;27.32;54.26;99586.75;6286616;28;20051;-73
2022/08/13 08:42:39;;;;;;;11.18;8.27;;;;;;;27.93;52.11;99582.69;6321560;28;20040;-73
2022/08/13 08:45:40;;;;;;;11.30;8.48;;;;;;;28.16;53.66;99582.06;6320134;28;20040;-74
2022/08/13 08:48:42;;;;;;;10.63;8.60;;;;;;;28.06;53.04;99582.56;6321193;28;20051;-73
2022/08/13 08:51:45;;;;;;;11.52;8.82;;;;;;;28.43;50.75;99581.81;6302820;28;20040;-73
2022/08/13 08:54:49;;;;;;;14.32;8.77;;;;;;;28.52;49.64;99577.84;6303529;28;20036;-74
2022/08/13 08:57:53;;;;;;;12.35;8.73;;;;;;;28.36;57.16;99567.66;6320895;28;20076;-74
2022/08/13 09:00:56;;;;;;;11.63;7.95;;;;;;;28.34;50.22;99565.19;6311324;28;20047;-74
2022/08/13 09:03:58;;;;;;;10.80;7.75;;;;;;;28.25;49.41;99562.00;6292494;28;20040;-74
2022/08/13 09:07:01;;;;;;;10.15;7.65;;;;;;;28.21;49.73;99568.84;6292704;28;20475;-74
2022/08/13 09:10:05;;;;;;;19.02;10.95;;;;;;;28.45;56.70;99574.38;6293114;28;20044;-74
2022/08/13 09:13:07;;;;;;;12.55;8.07;;;;;;;28.59;48.08;99575.91;6293086;28;20568;-74
2022/08/13 09:16:10;;;;;;;10.20;7.30;;;;;;;28.55;47.60;99568.53;6276255;28;20056;-74
2022/08/13 09:19:14;;;;;;;14.10;7.68;;;;;;;28.76;49.20;99568.06;6293571;28;20048;-74
2022/08/13 09:22:23;;;;;;;12.00;8.32;;;;;;;29.17;51.60;99571.13;6295272;28;20539;-74
2022/08/13 09:25:26;;;;;;;13.73;8.40;;;;;;;29.07;47.02;99563.56;6295274;28;20036;-74
2022/08/13 09:28:27;;;;;;;11.45;7.38;;;;;;;29.15;49.17;99565.16;6277073;28;20052;-74
2022/08/13 09:31:29;;;;;;;9.25;7.50;;;;;;;29.14;44.34;99556.28;6277398;28;20128;-74
2022/08/13 09:34:30;;;;;;;9.00;7.55;;;;;;;29.02;48.31;99564.25;6244456;28;20134;-74
2022/08/13 09:37:34;;;;;;;;;;;;;;;29.22;43.83;99558.66;6260885;28;20079;-74
2022/08/13 09:40:44;;;;;;;11.20;7.03;;;;;;;28.96;46.14;99557.09;6293843;28;19931;-74
2022/08/13 09:43:45;;;;;;;11.00;8.23;;;;;;;28.85;47.12;99550.63;6293768;28;20044;-74
2022/08/13 09:46:48;;;;;;;;;;;;;;;29.42;45.50;99554.84;6294344;28;20044;-74
2022/08/13 09:49:50;;;;;;;10.00;7.63;;;;;;;29.44;47.22;99555.44;6294811;28;19924;-73
2022/08/13 09:52:53;;;;;;;;;;;;;;;30.09;44.72;99552.75;6260867;28;20417;-74
2022/08/13 09:55:56;;;;;;;8.70;7.35;;;;;;;30.26;45.79;99550.19;6294932;28;19924;-74
2022/08/13 09:58:58;;;;;;;19.90;9.30;;;;;;;30.30;45.63;99542.50;6277251;28;20044;-74
2022/08/13 10:02:09;;;;;;;12.77;7.80;;;;;;;30.34;42.91;99540.97;6294703;28;20048;-75
2022/08/13 10:05:10;;;;;;;13.63;7.88;;;;;;;30.17;42.58;99543.53;6298488;28;20036;-74
2022/08/13 10:08:18;;;;;;;9.60;7.45;;;;;;;30.28;43.95;99531.13;6281612;28;20107;-74
2022/08/13 10:11:22;;;;;;;9.32;7.07;;;;;;;30.35;44.36;99531.84;6299747;28;20040;-74
2022/08/13 10:14:23;;;;;;;9.25;7.10;;;;;;;30.81;43.88;99534.69;6282054;28;20040;-74
2022/08/13 10:17:42;;;;;;;12.15;7.80;;;;;;;30.90;45.89;99531.38;6281893;28;20040;-74
2022/08/13 10:20:48;;;;;;;8.95;6.95;;;;;;;31.22;43.99;99532.78;6299344;28;20068;-75
2022/08/13 10:23:49;;;;;;;9.52;6.90;;;;;;;31.45;39.17;99532.69;6299476;28;20047;-75
2022/08/13 10:26:50;;;;;;;13.75;6.68;;;;;;;31.76;36.55;99518.91;6281667;28;20139;-74
2022/08/13 10:29:51;;;;;;;8.82;6.97;;;;;;;31.80;38.75;99517.34;6297871;28;20048;-74
2022/08/13 10:32:55;;;;;;;;;;;;;;;30.99;36.92;99512.13;6298565;28;20495;-74
2022/08/13 10:35:58;;;;;;;11.73;7.00;;;;;;;31.55;38.91;99513.19;6299061;28;19920;-74
2022/08/13 10:39:02;;;;;;;9.18;6.38;;;;;;;32.24;38.33;99518.25;6298887;28;20594;-74
2022/08/13 10:42:03;;;;;;;11.07;6.75;;;;;;;32.02;40.17;99514.72;6297679;28;20037;-74
2022/08/13 10:45:06;;;;;;;9.57;6.25;;;;;;;32.02;38.72;99506.63;6281590;28;20040;-74
2022/08/13 10:48:13;;;;;;;12.98;6.03;;;;;;;30.77;35.74;99506.59;6298692;28;20064;-74
2022/08/13 10:51:14;;;;;;;8.27;6.28;;;;;;;30.65;36.70;99502.06;6298678;28;20041;-74
2022/08/13 10:54:14;;;;;;;;;;;;;;;29.95;37.74;99499.44;6281322;28;20098;-74
2022/08/13 10:57:15;;;;;;;10.07;6.07;;;;;;;30.12;39.59;99494.97;6264150;28;19971;-74
2022/08/13 11:00:17;;;;;;;8.55;5.93;;;;;;;30.30;40.83;99494.06;6298356;28;20457;-74
2022/08/13 11:03:18;;;;;;;7.43;6.07;;;;;;;30.56;50.01;99494.56;6297296;28;20045;-74
2022/08/13 11:06:19;;;;;;;;;;;;;;;30.43;39.40;99491.09;6281093;28;20040;-74
2022/08/13 11:09:20;;;;;;;9.10;5.70;;;;;;;31.55;35.34;99482.69;6263731;28;20019;-74
2022/08/13 11:12:24;;;;;;;8.25;5.38;;;;;;;31.79;34.02;99480.63;6280337;28;20139;-74
2022/08/13 11:15:25;;;;;;;6.82;5.32;;;;;;;31.98;35.73;99465.81;6279156;28;20091;-74
2022/08/13 11:18:27;;;;;;;;;;;;;;;31.08;34.51;99470.31;6280705;28;20040;-74
2022/08/13 11:21:28;;;;;;;6.72;4.88;;;;;;;30.31;34.94;99466.94;6297936;28;19921;-74
2022/08/13 11:24:29;;;;;;;;;;;;;;;30.20;35.66;99456.97;6297110;28;20552;-74
2022/08/13 11:27:32;;;;;;;9.63;5.47;;;;;;;30.27;36.32;99465.72;6298027;28;19920;-74
2022/08/13 11:30:33;;;;;;;6.80;5.03;;;;;;;30.22;37.09;99457.53;6279999;28;20237;-74
2022/08/13 11:33:34;;;;;;;6.95;5.97;;;;;;;30.52;37.63;99456.56;6296464;28;20040;-74
2022/08/13 11:36:35;;;;;;;;;;;;;;;30.04;38.88;99452.31;6280343;28;20060;-74
2022/08/13 11:39:39;;;;;;;12.20;6.63;;;;;;;30.02;37.75;99451.72;6279683;28;19920;-74
2022/08/13 11:42:41;;;;;;;10.43;6.35;;;;;;;29.67;37.64;99444.47;6297607;28;20137;-74
2022/08/13 11:45:42;;;;;;;8.57;6.85;;;;;;;30.06;38.12;99450.19;6279933;28;20045;-73
2022/08/13 11:48:43;;;;;;;10.18;6.40;;;;;;;30.28;38.94;99448.53;6296145;28;20041;-74
2022/08/13 11:51:45;;;;;;;12.40;5.57;;;;;;;30.81;37.00;99446.63;6279360;28;20144;-74
2022/08/13 11:54:46;;;;;;;9.43;6.25;;;;;;;30.57;40.32;99455.84;6296035;28;20049;-74
2022/08/13 11:57:46;;;;;;;8.32;5.70;;;;;;;30.27;36.60;99454.97;6262908;28;20090;-74
2022/08/13 12:00:48;;;;;;;;;;;;;;;30.30;38.27;99446.44;6279763;28;20125;-74
2022/08/13 12:03:48;;;;;;;10.73;5.78;;;;;;;30.55;38.92;99444.50;6262631;28;20010;-74
2022/08/13 12:06:51;;;;;;;11.63;6.22;;;;;;;30.30;39.23;99437.56;6295716;28;20044;-74
2022/08/13 12:09:54;;;;;;;7.72;5.50;;;;;;;30.22;38.27;99438.72;6295705;28;20044;-74
2022/08/13 12:12:55;;;;;;;9.48;5.40;;;;;;;30.09;38.64;99444.38;6295386;28;20045;-74
2022/08/13 12:15:57;;;;;;;;;;;;;;;29.82;43.39;99442.16;6297325;28;20083;-74
2022/08/13 12:18:58;;;;;;;7.97;5.88;;;;;;;29.81;42.77;99442.38;6295459;28;19927;-74
2022/08/13 12:22:00;;;;;;;8.32;6.10;;;;;;;29.69;39.67;99442.34;6295356;28;20072;-74
2022/08/13 12:25:01;;;;;;;12.93;6.28;;;;;;;29.28;39.17;99434.16;6296661;28;20041;-74
2022/08/13 12:28:35;;;;;;;14.40;6.28;;;;;;;29.67;39.09;99439.09;6294894;28;20051;-74
2022/08/13 12:31:38;;;;;;;8.70;6.32;;;;;;;29.60;40.30;99439.22;6208695;28;20151;-74
2022/08/13 12:34:39;;;;;;;9.93;6.60;;;;;;;29.48;42.72;99433.81;6278781;28;20072;-74
2022/08/13 12:37:40;;;;;;;;;;;;;;;29.49;39.59;99432.78;6245846;28;20137;-74
2022/08/13 12:40:43;;;;;;;6.93;5.53;;;;;;;29.43;40.14;99433.72;6296090;28;19921;-74
2022/08/13 12:43:46;;;;;;;9.25;6.45;;;;;;;29.38;39.72;99422.81;6294901;28;20098;-74
2022/08/13 12:46:47;;;;;;;10.50;6.22;;;;;;;29.11;38.73;99422.44;6295966;28;20045;-74
2022/08/13 12:49:48;;;;;;;11.00;6.85;;;;;;;29.39;39.88;99429.84;6277944;28;20048;-74
2022/08/13 12:52:49;;;;;;;11.38;6.43;;;;;;;29.34;38.18;99429.72;6295792;28;20040;-74
2022/08/13 12:55:50;;;;;;;16.65;10.82;;;;;;;29.43;38.30;99424.84;6278050;28;20503;-74
2022/08/13 12:58:51;;;;;;;9.10;6.82;;;;;;;29.54;38.90;99416.75;6277872;28;20052;-74
2022/08/13 13:01:54;;;;;;;9.73;6.63;;;;;;;29.27;39.40;99411.00;6294475;28;20495;-74
2022/08/13 13:04:55;;;;;;;10.43;6.15;;;;;;;29.37;38.91;99420.38;6294496;28;20614;-74
2022/08/13 13:07:58;;;;;;;8.73;5.60;;;;;;;29.19;39.79;99415.91;6277635;28;20053;-74
2022/08/13 13:11:03;;;;;;;9.70;6.82;;;;;;;29.28;38.94;99409.13;6295384;28;20067;-74
2022/08/13 13:14:07;;;;;;;8.00;5.70;;;;;;;29.18;38.17;99414.25;6295391;28;20507;-75
2022/08/13 13:17:08;;;;;;;7.60;5.90;;;;;;;28.87;39.36;99413.50;6294229;28;20158;-75
2022/08/13 13:20:10;;;;;;;12.75;5.78;;;;;;;28.83;39.42;99412.31;6295162;28;20045;-73
2022/08/13 13:23:13;;;;;;;8.52;5.88;;;;;;;28.77;38.52;99405.16;6260953;28;20119;-75
2022/08/13 13:26:15;;;;;;;9.77;6.75;;;;;;;28.91;38.41;99406.59;6277206;28;20512;-73
2022/08/13 13:29:16;;;;;;;7.50;5.55;;;;;;;28.75;38.34;99416.13;6295167;28;20272;-73
2022/08/13 13:32:16;;;;;;;7.60;5.85;;;;;;;28.54;37.78;99406.72;6277230;28;20514;-73
2022/08/13 13:35:20;;;;;;;6.43;4.85;;;;;;;28.56;37.19;99406.47;6294148;28;20059;-73
2022/08/13 13:38:22;;;;;;;9.68;5.65;;;;;;;28.67;38.24;99395.78;6260691;28;20090;-73
2022/08/13 13:41:23;;;;;;;7.68;5.85;;;;;;;28.80;39.54;99405.50;6293788;28;20469;-73
2022/08/13 13:44:24;;;;;;;8.43;5.25;;;;;;;28.71;36.58;99412.25;6295061;28;20037;-73
2022/08/13 13:47:25;;;;;;;10.98;6.57;;;;;;;28.91;38.21;99402.06;6293700;28;20401;-73
2022/08/13 13:50:28;;;;;;;7.63;5.75;;;;;;;29.02;37.21;99397.75;6293647;28;20045;-73
2022/08/13 13:53:32;;;;;;;7.03;5.53;;;;;;;29.16;36.50;99405.63;6276842;28;20044;-73
2022/08/13 13:56:35;;;;;;;7.72;5.43;;;;;;;29.39;34.63;99399.47;6295178;28;20436;-73
2022/08/13 13:59:35;;;;;;;7.30;5.47;;;;;;;29.51;36.25;99400.31;6277200;28;20045;-72
2022/08/13 14:02:50;;;;;;;7.63;5.55;;;;;;;29.87;39.58;99398.44;6294780;28;20041;-73
2022/08/13 14:05:51;;;;;;;7.55;5.00;;;;;;;29.67;37.06;99391.53;6293461;28;20044;-73
2022/08/13 14:08:52;;;;;;;8.57;5.35;;;;;;;29.58;36.22;99382.19;6260528;28;20086;-72
2022/08/13 14:11:55;;;;;;;8.45;4.95;;;;;;;29.27;35.38;99381.47;6293504;28;20045;-73
2022/08/13 14:14:55;;;;;;;8.43;5.05;;;;;;;29.54;35.23;99384.50;6277031;28;20545;-73
2022/08/13 14:17:56;;;;;;;5.35;4.43;;;;;;;29.50;34.56;99395.97;6294792;28;20037;-73
2022/08/13 14:20:58;;;;;;;7.50;4.95;;;;;;;29.49;35.74;99386.28;6243670;28;20397;-73
2022/08/13 14:23:59;;;;;;;;;;;;;;;29.68;36.31;99384.28;6277281;28;20382;-73
2022/08/13 14:27:00;;;;;;;9.80;5.90;;;;;;;29.63;35.05;99376.94;6293296;28;19920;-72
2022/08/13 14:30:04;;;;;;;9.18;5.20;;;;;;;29.67;36.16;99377.25;6293313;28;20044;-73